Gallup, New Mexico
Current Conditions -  °F | °C
As of 12:53 PM on Monday 22 Dec 2014 (Local Time) from KGUP Reporting Station
Broken Clouds Broken Clouds  
Wind Chill:   Ceiling: 4600
Heat Index:   Visibility: 10mi
Dew Point:   Wind: 12mph
Humidity: 56%   Direction: 230°SW
Pressure: 29.89"   Gusts: 22mph
Location:  35.53°N, 108.74°W
Report Text: KGUP 221953Z AUTO 23010G19KT 10SM BKN046 09/01 A2989 RMK AO2 SLP084 T00940011
Loading
Personal Weather Stations






























Interactive Weather Map New forecast layout! Learn more

10-Day Weather Forecast

Advertisements
Track Severe Weather on mobile